Terminal Aerodrome Forecast
Issued by NWS

Home | Current Version | Previous Version | Text Only | Print | Product List | Glossary On
Versions: 1 2 3 4 5 6 7 8 9 10 11 12 13 14 15
000
FTUS45 KTFX 070539
TAFLWT
TAF
KLWT 070539Z 0706/0806 12005KT P6SM SKC
     FM070900 22005KT P6SM SKC
     FM071700 36008KT P6SM SCT060 SCT120
     FM072100 01007KT P6SM VCSH SCT060 BKN120 PROB30 0721/0802
      VRB20G30KT P6SM -TSRA BKN060CB
     FM080300 12006KT P6SM SCT050 BKN120=

USA.gov is the U.S. government's official web portal to all federal, state and local government web resources and services.